Time;durP1;ratioP1;P1;durP2;ratioP2;P2;SDS_P1;SDS_P2;PMS_P1;PMS_P2;Temp;Humidity;BMP_temperature;BMP_pressure;BME280_temperature;BME280_humidity;BME280_pressure;Samples;Min_cycle;Max_cycle;Signal;HPM_P1;HPM_P2
2021/05/09 00:00:07;;;;;;;;;;;;;;;20.71;44.16;99792.38;2217375;39;114912;-54
2021/05/09 00:01:40;;;;;;;;;;;;;;;20.70;44.12;99784.28;2205650;39;115245;-54
2021/05/09 00:03:11;;;;;;;;;;;;;;;20.70;44.50;99782.31;2210739;39;114825;-55
2021/05/09 00:04:43;;;;;;;;;;;;;;;20.70;44.38;99781.47;2212259;39;115012;-55
2021/05/09 00:06:15;;;;;;;;;;;;;;;20.69;44.44;99777.03;2209593;39;114014;-55
2021/05/09 00:07:46;;;;;;;;;;;;;;;20.68;44.45;99776.19;2215433;39;115063;-54
2021/05/09 00:09:17;;;;;;;;;;;;;;;20.69;44.27;99777.03;2210621;39;115041;-53
2021/05/09 00:10:49;;;;;;;;;;;;;;;20.68;44.24;99773.38;2208596;39;115238;-54
2021/05/09 00:12:21;;;;;;;;;;;;;;;20.68;44.54;99767.78;2214341;39;114727;-53
2021/05/09 00:13:53;;;;;;;;;;;;;;;20.67;44.79;99763.31;2219906;39;114876;-54
2021/05/09 00:15:26;;;;;;;;;;;;;;;20.68;44.41;99766.94;2206879;39;115937;-53
2021/05/09 00:16:57;;;;;;;;;;;;;;;20.66;44.25;99761.69;2210881;39;116707;-54
2021/05/09 00:18:28;;;;;;;;;;;;;;;20.66;44.39;99755.25;2211455;39;115571;-53
2021/05/09 00:20:00;;;;;;;;;;;;;;;20.68;44.12;99772.56;2205811;39;115533;-53
2021/05/09 00:21:31;;;;;;;;;;;;;;;20.66;44.17;99755.25;2206691;39;115559;-55
2021/05/09 00:23:03;;;;;;;;;;;;;;;20.66;44.02;99753.28;2213047;39;116121;-54
2021/05/09 00:24:34;;;;;;;;;;;;;;;20.65;44.15;99754.44;2211611;39;116198;-55
2021/05/09 00:26:06;;;;;;;;;;;;;;;20.67;44.28;99754.09;2209441;39;116319;-55
2021/05/09 00:27:40;;;;;;;;;;;;;;;20.66;44.40;99747.66;2214275;39;115637;-54
2021/05/09 00:29:12;;;;;;;;;;;;;;;20.67;44.51;99752.09;2206091;39;117437;-54
2021/05/09 00:30:43;;;;;;;;;;;;;;;20.66;44.46;99741.22;2209203;39;115470;-53
2021/05/09 00:32:14;;;;;;;;;;;;;;;20.67;44.32;99751.28;2215593;39;115687;-54
2021/05/09 00:33:46;;;;;;;;;;;;;;;20.65;44.32;99739.56;2214532;39;115400;-53
2021/05/09 00:35:17;;;;;;;;;;;;;;;20.65;44.35;99740.41;2216512;39;114720;-54
2021/05/09 00:36:49;;;;;;;;;;;;;;;20.65;44.56;99742.38;2214822;39;113891;-54
2021/05/09 00:38:20;;;;;;;;;;;;;;;20.64;44.34;99738.75;2216660;39;113613;-56
2021/05/09 00:39:51;;;;;;;;;;;;;;;20.64;44.52;99729.50;2217053;39;113830;-55
2021/05/09 00:41:23;;;;;;;;;;;;;;;20.65;44.19;99731.16;2212734;39;113847;-54
2021/05/09 00:42:57;;;;;;;;;;;;;;;20.63;44.54;99737.09;2211648;39;113595;-53
2021/05/09 00:44:28;;;;;;;;;;;;;;;20.64;44.12;99729.50;2204723;39;113829;-55
2021/05/09 00:46:00;;;;;;;;;;;;;;;20.63;44.59;99731.47;2214890;39;113890;-55
2021/05/09 00:47:31;;;;;;;;;;;;;;;20.65;44.36;99726.38;2212439;39;113785;-55
2021/05/09 00:49:03;;;;;;;;;;;;;;;20.64;44.41;99729.50;2209122;39;114199;-56
2021/05/09 00:50:34;;;;;;;;;;;;;;;20.62;44.41;99721.44;2210536;39;113723;-54
2021/05/09 00:52:07;;;;;;;;;;;;;;;20.62;44.66;99720.63;2215370;39;113926;-54
2021/05/09 00:53:41;;;;;;;;;;;;;;;20.62;44.08;99715.00;2217383;39;113681;-54
2021/05/09 00:55:13;;;;;;;;;;;;;;;20.59;44.88;99715.66;2216517;39;114209;-55
2021/05/09 00:56:45;;;;;;;;;;;;;;;20.57;44.58;99709.56;2206686;39;113981;-53
2021/05/09 00:58:17;;;;;;;;;;;;;;;20.58;44.56;99714.84;2216581;39;114048;-56
2021/05/09 00:59:52;;;;;;;;;;;;;;;20.57;44.28;99704.78;2216061;39;114808;-55
2021/05/09 01:01:23;;;;;;;;;;;;;;;20.58;44.75;99702.81;2216568;39;114799;-55
2021/05/09 01:02:55;;;;;;;;;;;;;;;20.57;44.45;99701.16;2217235;39;115261;-54
2021/05/09 01:04:27;;;;;;;;;;;;;;;20.58;44.61;99702.81;2210208;39;114754;-54
2021/05/09 01:06:01;;;;;;;;;;;;;;;20.57;44.25;99695.53;2215380;39;114967;-55
2021/05/09 01:07:33;;;;;;;;;;;;;;;20.58;44.42;99698.00;2217665;39;114621;-55
2021/05/09 01:10:40;;;;;;;;;;;;;;;20.58;44.71;99685.97;2215977;39;114976;-54
2021/05/09 01:12:11;;;;;;;;;;;;;;;20.56;44.79;99683.50;2217635;39;114849;-54
2021/05/09 01:13:43;;;;;;;;;;;;;;;20.56;44.64;99688.28;2210091;39;117854;-55
2021/05/09 01:15:14;;;;;;;;;;;;;;;20.56;44.61;99688.28;2215461;39;114838;-55
2021/05/09 01:16:45;;;;;;;;;;;;;;;20.56;44.84;99688.28;2217687;39;114751;-56
2021/05/09 01:18:17;;;;;;;;;;;;;;;20.55;44.78;99681.84;2217270;39;114777;-54
2021/05/09 01:19:49;;;;;;;;;;;;;;;20.55;45.11;99675.41;2213123;39;114793;-56
2021/05/09 01:21:22;;;;;;;;;;;;;;;20.55;44.88;99681.03;2215044;39;116164;-54
2021/05/09 01:22:54;;;;;;;;;;;;;;;20.56;44.87;99671.44;2216909;39;115435;-54
2021/05/09 01:24:28;;;;;;;;;;;;;;;20.56;44.89;99665.84;2217584;39;114272;-56
2021/05/09 01:25:59;;;;;;;;;;;;;;;20.56;45.08;99666.66;2217030;39;114708;-54
2021/05/09 01:27:31;;;;;;;;;;;;;;;20.55;44.63;99670.63;2204657;39;115890;-56
2021/05/09 01:29:02;;;;;;;;;;;;;;;20.56;44.58;99671.44;2214689;39;116362;-55
2021/05/09 01:30:34;;;;;;;;;;;;;;;20.56;44.84;99668.63;2217024;39;116290;-56
2021/05/09 01:32:06;;;;;;;;;;;;;;;20.54;44.54;99674.59;2208238;39;115529;-56
2021/05/09 01:33:37;;;;;;;;;;;;;;;20.55;44.72;99667.81;2205427;39;115507;-54
2021/05/09 01:35:11;;;;;;;;;;;;;;;20.56;44.77;99665.84;2207276;39;115454;-56
2021/05/09 01:36:42;;;;;;;;;;;;;;;20.55;45.03;99670.63;2209159;39;116030;-53
2021/05/09 01:38:15;;;;;;;;;;;;;;;20.55;44.69;99661.38;2212669;39;115843;-55
2021/05/09 01:39:46;;;;;;;;;;;;;;;20.55;44.75;99676.22;2212681;39;115590;-54
2021/05/09 01:41:17;;;;;;;;;;;;;;;20.57;44.65;99673.09;2212776;39;115540;-54
2021/05/09 01:42:50;;;;;;;;;;;;;;;20.56;44.78;99669.47;2211295;39;114027;-53
2021/05/09 01:44:22;;;;;;;;;;;;;;;20.55;44.89;99670.63;2216207;39;113883;-55
2021/05/09 01:45:53;;;;;;;;;;;;;;;20.56;44.78;99672.28;2209521;39;113860;-55
2021/05/09 01:47:26;;;;;;;;;;;;;;;20.55;44.49;99665.00;2215532;39;114014;-54
2021/05/09 01:48:57;;;;;;;;;;;;;;;20.54;44.70;99666.16;2214520;39;113622;-55
2021/05/09 01:50:28;;;;;;;;;;;;;;;20.55;45.04;99662.19;2210950;39;113606;-52
2021/05/09 01:52:01;;;;;;;;;;;;;;;20.55;44.59;99664.19;2204815;39;113639;-54
2021/05/09 01:53:32;;;;;;;;;;;;;;;20.56;44.94;99665.84;2210593;39;113819;-55
2021/05/09 01:55:07;;;;;;;;;;;;;;;20.56;44.92;99663.84;2211075;39;113939;-55
2021/05/09 01:56:38;;;;;;;;;;;;;;;20.58;44.84;99666.34;2209597;39;113890;-54
2021/05/09 01:58:10;;;;;;;;;;;;;;;20.58;44.46;99663.53;2216059;39;113806;-56
2021/05/09 01:59:42;;;;;;;;;;;;;;;20.58;44.76;99671.94;2210778;39;113907;-55
2021/05/09 02:01:14;;;;;;;;;;;;;;;20.57;44.81;99664.69;2211924;39;113874;-55
2021/05/09 02:02:46;;;;;;;;;;;;;;;20.56;44.71;99657.41;2216648;39;113710;-54
2021/05/09 02:04:17;;;;;;;;;;;;;;;20.57;45.00;99665.50;2206723;39;115009;-55
2021/05/09 02:05:48;;;;;;;;;;;;;;;20.57;44.77;99665.50;2215632;39;114851;-54
2021/05/09 02:07:20;;;;;;;;;;;;;;;20.55;44.86;99667.00;2217118;39;115004;-55
2021/05/09 02:08:52;;;;;;;;;;;;;;;20.53;44.81;99667.34;2212616;39;114919;-53
2021/05/09 02:10:26;;;;;;;;;;;;;;;20.53;44.86;99667.34;2212440;39;113962;-55
2021/05/09 02:11:58;;;;;;;;;;;;;;;20.55;44.94;99664.19;2217425;39;115046;-54
2021/05/09 02:13:30;;;;;;;;;;;;;;;20.53;44.98;99664.53;2214994;39;114955;-56
2021/05/09 02:15:01;;;;;;;;;;;;;;;20.55;44.78;99664.19;2215191;39;115005;-52
2021/05/09 02:16:34;;;;;;;;;;;;;;;20.54;44.60;99659.72;2210194;39;115216;-55
2021/05/09 02:18:05;;;;;;;;;;;;;;;20.54;45.12;99662.53;2212726;39;114927;-56
2021/05/09 02:19:37;;;;;;;;;;;;;;;20.54;44.56;99665.34;2217184;39;115506;-56
2021/05/09 02:21:09;;;;;;;;;;;;;;;20.55;44.50;99665.00;2208316;39;114890;-55
2021/05/09 02:22:41;;;;;;;;;;;;;;;20.55;44.58;99659.41;2215450;39;114728;-53
2021/05/09 02:24:14;;;;;;;;;;;;;;;20.53;45.02;99658.94;2213662;39;113913;-54
2021/05/09 02:25:46;;;;;;;;;;;;;;;20.54;44.86;99656.91;2215340;39;114587;-56
2021/05/09 02:27:17;;;;;;;;;;;;;;;20.53;45.02;99663.72;2210716;39;114596;-56
2021/05/09 02:28:49;;;;;;;;;;;;;;;20.51;44.81;99655.63;2203980;39;115747;-54
2021/05/09 02:30:21;;;;;;;;;;;;;;;20.50;44.84;99655.97;2202922;39;115550;-54
2021/05/09 02:31:52;;;;;;;;;;;;;;;20.50;44.95;99651.16;2202792;39;115670;-54
2021/05/09 02:33:23;;;;;;;;;;;;;;;20.51;45.29;99658.44;2212840;39;114572;-54
2021/05/09 02:34:56;;;;;;;;;;;;;;;20.52;45.10;99650.84;2217966;39;115974;-55
2021/05/09 02:36:28;;;;;;;;;;;;;;;20.51;45.40;99650.00;2216462;39;115497;-53
2021/05/09 02:37:59;;;;;;;;;;;;;;;20.52;45.39;99662.06;2213507;39;116019;-55
2021/05/09 02:39:31;;;;;;;;;;;;;;;20.51;45.21;99649.19;2217625;39;115559;-55
2021/05/09 02:41:02;;;;;;;;;;;;;;;20.52;45.33;99648.03;2211134;39;115392;-53
2021/05/09 02:42:34;;;;;;;;;;;;;;;20.52;45.08;99642.44;2215940;39;115784;-55
2021/05/09 02:44:06;;;;;;;;;;;;;;;20.51;45.35;99650.00;2210587;39;116321;-52
2021/05/09 02:45:37;;;;;;;;;;;;;;;20.52;45.19;99645.22;2214940;39;116120;-54
2021/05/09 02:47:09;;;;;;;;;;;;;;;20.53;45.35;99646.88;2216451;39;114984;-55
2021/05/09 02:48:40;;;;;;;;;;;;;;;20.50;45.54;99659.59;2216432;39;113755;-54
2021/05/09 02:50:12;;;;;;;;;;;;;;;20.51;45.45;99649.19;2216335;39;113999;-53
2021/05/09 02:51:43;;;;;;;;;;;;;;;20.49;45.43;99649.53;2210534;39;113629;-54
2021/05/09 02:53:15;;;;;;;;;;;;;;;20.51;45.54;99654.81;2215398;39;113722;-55
2021/05/09 02:54:46;;;;;;;;;;;;;;;20.50;45.43;99648.38;2217211;39;113584;-55
2021/05/09 02:56:17;;;;;;;;;;;;;;;20.49;45.46;99645.91;2217757;39;113764;-54
2021/05/09 02:57:50;;;;;;;;;;;;;;;20.48;45.35;99641.47;2216778;39;113858;-55
2021/05/09 02:59:22;;;;;;;;;;;;;;;20.48;45.37;99638.66;2210537;39;113683;-54
2021/05/09 03:00:57;;;;;;;;;;;;;;;20.48;45.41;99642.28;2211430;39;113924;-53
2021/05/09 03:02:29;;;;;;;;;;;;;;;20.49;45.11;99627.06;2215161;39;113835;-55
2021/05/09 03:04:01;;;;;;;;;;;;;;;20.48;45.22;99633.88;2207969;39;113807;-52
2021/05/09 03:05:33;;;;;;;;;;;;;;;20.48;45.41;99631.06;2205119;39;116748;-55
2021/05/09 03:07:04;;;;;;;;;;;;;;;20.48;45.38;99628.25;2215510;39;113710;-55
2021/05/09 03:08:35;;;;;;;;;;;;;;;20.48;45.12;99617.03;2213428;39;113872;-55
2021/05/09 03:10:07;;;;;;;;;;;;;;;20.49;45.68;99623.47;2208356;39;114825;-53
2021/05/09 03:11:38;;;;;;;;;;;;;;;20.49;45.21;99615.06;2211590;39;114916;-54
2021/05/09 03:13:10;;;;;;;;;;;;;;;20.46;45.55;99613.72;2215752;39;114915;-54
2021/05/09 03:14:42;;;;;;;;;;;;;;;20.46;45.65;99615.72;2212926;39;114916;-55
2021/05/09 03:16:13;;;;;;;;;;;;;;;20.46;45.50;99610.09;2213929;39;114848;-56
2021/05/09 03:17:45;;;;;;;;;;;;;;;20.48;45.28;99616.22;2214150;39;114781;-54
2021/05/09 03:19:16;;;;;;;;;;;;;;;20.48;45.46;99621.81;2213406;39;115192;-56
2021/05/09 03:20:48;;;;;;;;;;;;;;;20.45;45.25;99612.09;2216096;39;114906;-54
2021/05/09 03:22:19;;;;;;;;;;;;;;;20.46;45.25;99616.53;2213074;39;114153;-55
2021/05/09 03:23:51;;;;;;;;;;;;;;;20.47;45.76;99614.56;2215486;39;115088;-54
2021/05/09 03:25:22;;;;;;;;;;;;;;;20.46;45.35;99619.34;2214057;39;114873;-55
2021/05/09 03:26:54;;;;;;;;;;;;;;;20.45;45.37;99622.47;2215222;39;115524;-53
2021/05/09 03:28:26;;;;;;;;;;;;;;;20.45;45.41;99616.88;2213484;39;114910;-54
2021/05/09 03:29:58;;;;;;;;;;;;;;;20.47;45.37;99614.56;2218212;39;114999;-55
2021/05/09 03:31:30;;;;;;;;;;;;;;;20.42;45.34;99615.59;2216135;39;115554;-56
2021/05/09 03:33:02;;;;;;;;;;;;;;;20.41;45.36;99609.16;2209425;39;115470;-53
2021/05/09 03:34:33;;;;;;;;;;;;;;;20.41;45.65;99609.16;2211770;39;115495;-55
2021/05/09 03:36:06;;;;;;;;;;;;;;;20.42;45.40;99599.56;2217750;39;115523;-55
2021/05/09 03:37:37;;;;;;;;;;;;;;;20.42;45.46;99599.56;2213229;39;115501;-55
2021/05/09 03:39:09;;;;;;;;;;;;;;;20.43;45.47;99603.22;2205163;39;115607;-55
2021/05/09 03:40:41;;;;;;;;;;;;;;;20.41;45.33;99605.50;2215082;39;115730;-55
2021/05/09 03:42:12;;;;;;;;;;;;;;;20.42;45.67;99609.97;2217885;39;115668;-53
2021/05/09 03:43:44;;;;;;;;;;;;;;;20.42;45.32;99598.75;2215916;39;115590;-53
2021/05/09 03:45:16;;;;;;;;;;;;;;;20.41;45.71;99602.72;2207179;39;117222;-55
2021/05/09 03:46:47;;;;;;;;;;;;;;;20.40;45.44;99599.09;2214839;39;115607;-55
2021/05/09 03:48:18;;;;;;;;;;;;;;;20.41;45.41;99597.94;2206108;39;115199;-56
2021/05/09 03:49:50;;;;;;;;;;;;;;;20.42;45.39;99584.72;2214822;39;115743;-53
2021/05/09 03:51:21;;;;;;;;;;;;;;;20.39;45.49;99577.81;2215378;39;115683;-53
2021/05/09 03:52:53;;;;;;;;;;;;;;;20.42;45.44;99581.91;2213806;39;113892;-55
2021/05/09 03:54:25;;;;;;;;;;;;;;;20.41;45.85;99571.84;2205446;39;114117;-54
2021/05/09 03:55:57;;;;;;;;;;;;;;;20.40;45.74;99573.00;2214267;39;113641;-55
2021/05/09 03:57:29;;;;;;;;;;;;;;;20.40;45.56;99567.41;2210706;39;114258;-56
2021/05/09 03:59:00;;;;;;;;;;;;;;;20.39;45.77;99572.22;2215213;39;114197;-56
2021/05/09 04:00:32;;;;;;;;;;;;;;;20.40;45.86;99561.78;2217252;39;113805;-54
2021/05/09 04:02:04;;;;;;;;;;;;;;;20.37;45.68;99554.88;2217804;39;113662;-54
2021/05/09 04:03:36;;;;;;;;;;;;;;;20.37;45.76;99556.88;2217827;39;113796;-54
2021/05/09 04:05:10;;;;;;;;;;;;;;;20.35;45.73;99562.81;2216865;39;113739;-54
2021/05/09 04:06:42;;;;;;;;;;;;;;;20.36;45.66;99567.25;2216407;39;113859;-56
2021/05/09 04:08:15;;;;;;;;;;;;;;;20.35;45.47;99562.81;2218036;39;113949;-54
2021/05/09 04:09:46;;;;;;;;;;;;;;;20.35;45.73;99564.81;2211876;39;113923;-54
2021/05/09 04:11:18;;;;;;;;;;;;;;;20.36;45.71;99564.47;2216507;39;113783;-54
2021/05/09 04:12:50;;;;;;;;;;;;;;;20.35;45.89;99551.59;2217587;39;113633;-55
2021/05/09 04:14:21;;;;;;;;;;;;;;;20.36;45.51;99550.44;2220455;39;113851;-56
2021/05/09 04:15:53;;;;;;;;;;;;;;;20.35;45.57;99562.00;2209498;39;114972;-57
2021/05/09 04:17:24;;;;;;;;;;;;;;;20.35;45.68;99559.22;2206764;39;115264;-54
2021/05/09 04:18:55;;;;;;;;;;;;;;;20.33;45.64;99564.31;2205912;39;115087;-56
2021/05/09 04:20:27;;;;;;;;;;;;;;;20.34;45.58;99565.97;2210547;39;114790;-56
2021/05/09 04:21:58;;;;;;;;;;;;;;;20.34;45.43;99551.94;2198981;39;114809;-55
2021/05/09 04:23:30;;;;;;;;;;;;;;;20.31;45.50;99561.03;2207484;39;114809;-56
2021/05/09 04:25:01;;;;;;;;;;;;;;;20.34;45.86;99561.19;2211924;39;114860;-55
2021/05/09 04:26:33;;;;;;;;;;;;;;;20.32;45.55;99549.47;2211755;39;115360;-56
2021/05/09 04:28:04;;;;;;;;;;;;;;;20.32;45.70;99541.06;2205103;39;114800;-54
2021/05/09 04:29:36;;;;;;;;;;;;;;;20.35;45.31;99542.38;2207894;39;114749;-52
2021/05/09 04:31:10;;;;;;;;;;;;;;;20.34;45.61;99554.75;2213817;39;114923;-53
2021/05/09 04:32:41;;;;;;;;;;;;;;;20.32;46.02;99557.06;2205405;39;115185;-55
2021/05/09 04:34:12;;;;;;;;;;;;;;;20.31;45.54;99552.59;2214836;39;114860;-53
2021/05/09 04:35:45;;;;;;;;;;;;;;;20.30;45.75;99540.59;2220836;39;116003;-56
2021/05/09 04:37:17;;;;;;;;;;;;;;;20.30;45.66;99535.00;2210706;39;115739;-54
2021/05/09 04:38:48;;;;;;;;;;;;;;;20.31;45.56;99538.59;2214314;39;115522;-55
2021/05/09 04:40:20;;;;;;;;;;;;;;;20.32;45.50;99537.44;2217223;39;115502;-54
2021/05/09 04:41:52;;;;;;;;;;;;;;;20.33;45.68;99536.28;2208979;39;116598;-56
2021/05/09 04:43:24;;;;;;;;;;;;;;;20.29;45.54;99538.91;2206838;39;114744;-56
2021/05/09 04:44:55;;;;;;;;;;;;;;;20.32;45.60;99548.66;2210400;39;115933;-54
2021/05/09 04:46:26;;;;;;;;;;;;;;;20.31;45.61;99547.00;2214954;39;116145;-55
2021/05/09 04:47:58;;;;;;;;;;;;;;;20.31;45.76;99549.81;2217128;39;115557;-53
2021/05/09 04:49:30;;;;;;;;;;;;;;;20.31;45.68;99545.03;2210253;39;115517;-53
2021/05/09 04:51:01;;;;;;;;;;;;;;;20.30;45.91;99545.38;2215095;39;115560;-55
2021/05/09 04:52:33;;;;;;;;;;;;;;;20.30;45.86;99551.81;2210254;39;115518;-56
2021/05/09 04:54:04;;;;;;;;;;;;;;;20.29;45.74;99560.53;2211175;39;116166;-54
2021/05/09 04:55:36;;;;;;;;;;;;;;;20.30;45.70;99560.22;2216119;39;115249;-53
2021/05/09 04:57:07;;;;;;;;;;;;;;;20.28;45.62;99556.06;2217703;39;115788;-55
2021/05/09 04:58:39;;;;;;;;;;;;;;;20.27;45.83;99551.63;2215717;39;113556;-55
2021/05/09 05:00:14;;;;;;;;;;;;;;;20.26;45.89;99545.19;2217270;39;113743;-56
2021/05/09 05:01:45;;;;;;;;;;;;;;;20.27;45.94;99548.81;2217334;39;113810;-55
2021/05/09 05:03:17;;;;;;;;;;;;;;;20.29;45.59;99546.50;2217138;39;113808;-55
2021/05/09 05:04:48;;;;;;;;;;;;;;;20.27;45.64;99548.81;2218018;39;113622;-54
2021/05/09 05:06:19;;;;;;;;;;;;;;;20.29;45.64;99555.75;2216982;39;113796;-57
2021/05/09 05:07:52;;;;;;;;;;;;;;;20.25;45.62;99556.78;2209877;39;113996;-54
2021/05/09 05:09:23;;;;;;;;;;;;;;;20.28;45.82;99544.84;2215173;39;113548;-56
2021/05/09 05:10:55;;;;;;;;;;;;;;;20.26;45.81;99533.97;2217540;39;113732;-55
2021/05/09 05:12:26;;;;;;;;;;;;;;;20.26;45.88;99544.41;2217089;39;113842;-55
2021/05/09 05:13:59;;;;;;;;;;;;;;;20.26;45.81;99561.22;2209818;39;114537;-52
2021/05/09 05:15:30;;;;;;;;;;;;;;;20.27;45.80;99548.81;2210687;39;113791;-56
2021/05/09 05:17:02;;;;;;;;;;;;;;;20.26;45.75;99545.19;2217587;39;113813;-56
2021/05/09 05:18:34;;;;;;;;;;;;;;;20.26;45.71;99556.41;2208180;39;114182;-55
2021/05/09 05:20:07;;;;;;;;;;;;;;;20.26;46.07;99550.00;2207628;39;114742;-56
2021/05/09 05:21:38;;;;;;;;;;;;;;;20.24;45.78;99558.75;2214417;39;115460;-53
2021/05/09 05:23:10;;;;;;;;;;;;;;;20.24;45.93;99557.91;2216856;39;114816;-54
2021/05/09 05:24:41;;;;;;;;;;;;;;;20.25;45.94;99560.41;2213131;39;114794;-54
2021/05/09 05:26:12;;;;;;;;;;;;;;;20.24;46.11;99564.34;2212333;39;114716;-54
2021/05/09 05:27:44;;;;;;;;;;;;;;;20.24;46.06;99555.94;2199983;39;116050;-56
2021/05/09 05:29:15;;;;;;;;;;;;;;;20.25;45.71;99579.22;2212824;39;115407;-53
2021/05/09 05:30:49;;;;;;;;;;;;;;;20.26;45.76;99570.44;2217574;39;115133;-53
2021/05/09 05:32:21;;;;;;;;;;;;;;;20.26;45.80;99562.00;2212295;39;114980;-56
2021/05/09 05:35:28;;;;;;;;;;;;;;;20.24;46.16;99567.16;2207113;39;114807;-55
2021/05/09 05:37:00;;;;;;;;;;;;;;;20.24;46.04;99569.97;2215518;39;114718;-56
2021/05/09 05:38:32;;;;;;;;;;;;;;;20.25;45.91;99570.78;2210303;39;115591;-53
2021/05/09 05:40:07;;;;;;;;;;;;;;;20.22;46.24;99582.66;2210935;39;114744;-57
2021/05/09 05:41:38;;;;;;;;;;;;;;;20.23;46.39;99581.50;2215049;39;115454;-53
2021/05/09 05:43:10;;;;;;;;;;;;;;;20.23;46.17;99576.72;2216987;39;115738;-52
2021/05/09 05:44:41;;;;;;;;;;;;;;;20.24;46.23;99581.19;2206332;39;115610;-55
2021/05/09 05:46:13;;;;;;;;;;;;;;;20.24;46.41;99569.16;2212572;39;115689;-53
2021/05/09 05:47:44;;;;;;;;;;;;;;;20.23;46.35;99579.53;2211523;39;116221;-56
2021/05/09 05:49:17;;;;;;;;;;;;;;;20.20;46.13;99573.78;2204226;39;115433;-55
2021/05/09 05:50:49;;;;;;;;;;;;;;;20.18;46.42;99565.72;2208697;39;115540;-53
2021/05/09 05:52:20;;;;;;;;;;;;;;;20.17;46.23;99564.06;2211234;39;115779;-55
2021/05/09 05:53:54;;;;;;;;;;;;;;;20.19;46.45;99572.13;2210255;39;115500;-54
2021/05/09 05:55:26;;;;;;;;;;;;;;;20.21;46.50;99575.44;2203059;39;115022;-56
2021/05/09 05:57:02;;;;;;;;;;;;;;;20.21;46.38;99567.03;2214500;39;116071;-54
2021/05/09 05:58:33;;;;;;;;;;;;;;;20.22;46.44;99577.88;2216955;39;115509;-55
2021/05/09 06:00:06;;;;;;;;;;;;;;;20.22;46.32;99574.25;2217038;39;115556;-56
2021/05/09 06:01:38;;;;;;;;;;;;;;;20.20;46.56;99580.22;2212886;39;114587;-56
2021/05/09 06:03:09;;;;;;;;;;;;;;;20.22;46.52;99572.28;2219137;39;115978;-56
2021/05/09 06:04:42;;;;;;;;;;;;;;;20.24;46.48;99574.75;2209129;39;114269;-53
2021/05/09 06:06:18;;;;;;;;;;;;;;;20.22;46.53;99565.84;2215181;39;114183;-55
2021/05/09 06:07:59;;;;;;;;;;;;;;;20.22;46.47;99566.66;2217078;39;113566;-56
2021/05/09 06:09:31;;;;;;;;;;;;;;;20.23;46.68;99573.09;2209151;39;113792;-54
2021/05/09 06:11:02;;;;;;;;;;;;;;;20.24;46.33;99569.16;2213996;39;113646;-55
2021/05/09 06:12:35;;;;;;;;;;;;;;;20.27;46.58;99571.25;2215815;39;114271;-53
2021/05/09 06:14:07;;;;;;;;;;;;;;;20.25;46.97;99567.97;2209782;39;114713;-55
2021/05/09 06:15:54;;;;;;;;;;;;;;;20.22;46.42;99566.66;2215165;39;114052;-54
2021/05/09 06:17:25;;;;;;;;;;;;;;;20.22;46.78;99563.03;2208554;39;113878;-55
2021/05/09 06:18:57;;;;;;;;;;;;;;;20.21;46.82;99541.78;2209070;39;114279;-55
2021/05/09 06:20:28;;;;;;;;;;;;;;;20.23;46.82;99545.06;2212785;39;113844;-53
2021/05/09 06:22:00;;;;;;;;;;;;;;;20.22;46.62;99554.63;2210988;39;113735;-56
2021/05/09 06:23:32;;;;;;;;;;;;;;;20.21;46.85;99547.41;2216614;39;113891;-54
2021/05/09 06:25:05;;;;;;;;;;;;;;;20.22;46.43;99554.63;2201720;39;117946;-51
2021/05/09 06:26:37;;;;;;;;;;;;;;;20.21;46.78;99556.63;2210977;39;114991;-54
2021/05/09 06:28:09;;;;;;;;;;;;;;;20.22;46.58;99551.81;2209846;39;114959;-55
2021/05/09 06:29:41;;;;;;;;;;;;;;;20.19;46.85;99558.13;2213136;39;114918;-55
2021/05/09 06:31:13;;;;;;;;;;;;;;;20.19;46.48;99558.13;2214526;39;115132;-55
2021/05/09 06:32:44;;;;;;;;;;;;;;;20.22;46.68;99554.63;2212075;39;114835;-55
2021/05/09 06:34:16;;;;;;;;;;;;;;;20.22;46.82;99551.81;2217876;39;115445;-54
2021/05/09 06:35:49;;;;;;;;;;;;;;;20.23;46.90;99545.06;2210631;39;115523;-55
2021/05/09 06:37:21;;;;;;;;;;;;;;;20.22;46.71;99537.78;2203170;39;114860;-55
2021/05/09 06:38:52;;;;;;;;;;;;;;;20.21;46.51;99541.78;2213618;39;115134;-55
2021/05/09 06:40:23;;;;;;;;;;;;;;;20.22;46.78;99532.19;2207259;39;114173;-55
2021/05/09 06:41:58;;;;;;;;;;;;;;;20.20;46.64;99535.34;2213209;39;114619;-52
2021/05/09 06:43:30;;;;;;;;;;;;;;;20.21;46.55;99553.84;2217105;39;114974;-54
2021/05/09 06:46:37;;;;;;;;;;;;;;;20.22;46.90;99549.00;2213910;39;116214;-56
2021/05/09 06:48:11;;;;;;;;;;;;;;;20.21;46.55;99534.19;2213115;39;115750;-54
2021/05/09 06:49:43;;;;;;;;;;;;;;;20.23;46.52;99539.44;2213396;39;115817;-54
2021/05/09 06:51:14;;;;;;;;;;;;;;;20.22;46.60;99549.00;2206054;39;115551;-56
2021/05/09 06:52:45;;;;;;;;;;;;;;;20.22;46.68;99540.59;2215842;39;115769;-54
2021/05/09 06:54:17;;;;;;;;;;;;;;;20.21;46.81;99536.19;2204311;39;115644;-54
2021/05/09 06:55:50;;;;;;;;;;;;;;;20.22;46.60;99532.19;2213434;39;115669;-55
2021/05/09 06:57:26;;;;;;;;;;;;;;;20.21;46.67;99536.19;2215927;39;114187;-54
2021/05/09 06:58:57;;;;;;;;;;;;;;;20.21;46.81;99544.59;2214144;39;115800;-53
2021/05/09 07:00:29;;;;;;;;;;;;;;;20.21;46.84;99522.97;2217339;39;116558;-54
2021/05/09 07:02:00;;;;;;;;;;;;;;;20.20;46.84;99517.69;2210425;39;115841;-54
2021/05/09 07:03:32;;;;;;;;;;;;;;;20.22;46.53;99521.78;2215735;39;115462;-54
2021/05/09 07:05:03;;;;;;;;;;;;;;;20.21;46.90;99524.97;2216812;39;116422;-55
2021/05/09 07:06:36;;;;;;;;;;;;;;;20.22;46.69;99533.00;2210473;39;115661;-54
2021/05/09 07:08:07;;;;;;;;;;;;;;;20.24;47.07;99555.13;2214987;39;116127;-55
2021/05/09 07:09:40;;;;;;;;;;;;;;;20.23;46.92;99545.06;2209785;39;113859;-53
2021/05/09 07:11:11;;;;;;;;;;;;;;;20.22;46.61;99541.44;2213902;39;113723;-56
2021/05/09 07:12:43;;;;;;;;;;;;;;;20.22;47.01;99546.22;2210700;39;113860;-55
2021/05/09 07:14:14;;;;;;;;;;;;;;;20.23;47.18;99550.66;2208254;39;114648;-55
2021/05/09 07:15:47;;;;;;;;;;;;;;;20.23;47.02;99543.06;2210834;39;113661;-55
2021/05/09 07:17:18;;;;;;;;;;;;;;;20.24;46.83;99546.69;2209438;39;113767;-56
2021/05/09 07:18:50;;;;;;;;;;;;;;;20.21;46.73;99542.59;2210891;39;113880;-54
2021/05/09 07:22:09;;;;;;;;;;;;;;;20.25;46.86;99523.94;2211535;39;114203;-54
2021/05/09 07:23:47;;;;;;;;;;;;;;;20.24;46.81;99519.47;2205063;39;114205;-54
2021/05/09 07:25:19;;;;;;;;;;;;;;;20.24;47.04;99513.88;2211713;39;113705;-56
2021/05/09 07:26:51;;;;;;;;;;;;;;;20.23;47.35;99517.00;2205574;39;113740;-55
2021/05/09 07:28:23;;;;;;;;;;;;;;;20.24;46.81;99529.88;2210919;39;113569;-54
2021/05/09 07:29:55;;;;;;;;;;;;;;;20.27;46.88;99520.78;2211332;39;113634;-55
2021/05/09 07:31:32;;;;;;;;;;;;;;;20.30;47.38;99529.38;2214301;39;114220;-56
2021/05/09 07:33:05;;;;;;;;;;;;;;;20.32;47.30;99524.22;2209006;39;114737;-55
2021/05/09 07:34:37;;;;;;;;;;;;;;;20.37;47.71;99528.81;2211100;39;115311;-55
2021/05/09 07:36:08;;;;;;;;;;;;;;;20.40;47.63;99533.72;2211697;39;114466;-55
2021/05/09 07:37:40;;;;;;;;;;;;;;;20.41;47.53;99530.59;2210403;39;114892;-56
2021/05/09 07:39:11;;;;;;;;;;;;;;;20.46;47.51;99525.94;2205868;39;115085;-53
2021/05/09 07:40:42;;;;;;;;;;;;;;;20.48;47.76;99535.66;2209746;39;113996;-56
2021/05/09 07:42:17;;;;;;;;;;;;;;;20.51;47.83;99545.38;2201034;39;114691;-53
2021/05/09 07:43:49;;;;;;;;;;;;;;;20.55;47.94;99515.47;2206698;39;114910;-55
2021/05/09 07:45:22;;;;;;;;;;;;;;;20.59;48.14;99516.41;2206285;39;114783;-54
2021/05/09 07:46:54;;;;;;;;;;;;;;;20.64;47.81;99525.44;2209261;39;114924;-54
2021/05/09 07:48:28;;;;;;;;;;;;;;;20.68;48.08;99525.56;2210847;39;114740;-55
2021/05/09 07:49:59;;;;;;;;;;;;;;;20.73;47.94;99533.78;2209799;39;114962;-56
2021/05/09 07:51:30;;;;;;;;;;;;;;;20.76;47.77;99527.47;2206408;39;114938;-55
2021/05/09 07:53:02;;;;;;;;;;;;;;;20.80;47.83;99534.06;2207705;39;114768;-54
2021/05/09 07:54:33;;;;;;;;;;;;;;;20.83;47.76;99522.97;2210104;39;115623;-55
2021/05/09 07:56:06;;;;;;;;;;;;;;;20.89;47.65;99525.56;2205985;39;115519;-54
2021/05/09 07:57:37;;;;;;;;;;;;;;;20.91;47.81;99518.41;2206656;39;115730;-54